sensor_id;sensor_type;location;lat;lon;timestamp;P1;durP1;ratioP1;P2;durP2;ratioP2
20928;SDS011;21895;47.072;15.132;2023-09-12T00:00:47;6.95;;;4.05;;
20928;SDS011;21895;47.072;15.132;2023-09-12T00:03:14;6.97;;;4.18;;
20928;SDS011;21895;47.072;15.132;2023-09-12T00:05:50;10.05;;;4.57;;
20928;SDS011;21895;47.072;15.132;2023-09-12T00:08:23;10.05;;;4.57;;
20928;SDS011;21895;47.072;15.132;2023-09-12T00:11:02;12.95;;;5.40;;
20928;SDS011;21895;47.072;15.132;2023-09-12T00:13:32;13.25;;;5.35;;
20928;SDS011;21895;47.072;15.132;2023-09-12T00:15:59;7.35;;;4.10;;
20928;SDS011;21895;47.072;15.132;2023-09-12T00:18:26;9.30;;;4.78;;
20928;SDS011;21895;47.072;15.132;2023-09-12T00:20:53;10.48;;;4.85;;
20928;SDS011;21895;47.072;15.132;2023-09-12T00:23:20;8.10;;;4.82;;
20928;SDS011;21895;47.072;15.132;2023-09-12T00:25:49;9.43;;;5.20;;
20928;SDS011;21895;47.072;15.132;2023-09-12T00:28:17;8.57;;;4.55;;
20928;SDS011;21895;47.072;15.132;2023-09-12T00:30:47;7.87;;;4.75;;
20928;SDS011;21895;47.072;15.132;2023-09-12T00:33:14;10.68;;;5.05;;
20928;SDS011;21895;47.072;15.132;2023-09-12T00:35:41;7.78;;;4.60;;
20928;SDS011;21895;47.072;15.132;2023-09-12T00:38:08;8.32;;;4.95;;
20928;SDS011;21895;47.072;15.132;2023-09-12T00:40:35;7.10;;;4.47;;
20928;SDS011;21895;47.072;15.132;2023-09-12T00:43:03;8.05;;;4.93;;
20928;SDS011;21895;47.072;15.132;2023-09-12T00:45:30;10.13;;;4.97;;
20928;SDS011;21895;47.072;15.132;2023-09-12T00:47:57;10.80;;;5.18;;
20928;SDS011;21895;47.072;15.132;2023-09-12T00:50:27;10.30;;;5.57;;
20928;SDS011;21895;47.072;15.132;2023-09-12T00:52:55;8.43;;;4.72;;
20928;SDS011;21895;47.072;15.132;2023-09-12T00:55:22;7.45;;;4.53;;
20928;SDS011;21895;47.072;15.132;2023-09-12T00:57:49;10.50;;;5.00;;
20928;SDS011;21895;47.072;15.132;2023-09-12T01:00:17;8.00;;;4.47;;
20928;SDS011;21895;47.072;15.132;2023-09-12T01:02:45;6.32;;;3.95;;
20928;SDS011;21895;47.072;15.132;2023-09-12T01:05:15;8.88;;;4.72;;
20928;SDS011;21895;47.072;15.132;2023-09-12T01:07:42;17.35;;;5.70;;
20928;SDS011;21895;47.072;15.132;2023-09-12T01:10:10;6.70;;;3.95;;
20928;SDS011;21895;47.072;15.132;2023-09-12T01:12:36;11.63;;;5.03;;
20928;SDS011;21895;47.072;15.132;2023-09-12T01:15:04;9.32;;;4.85;;
20928;SDS011;21895;47.072;15.132;2023-09-12T01:17:35;8.07;;;4.50;;
20928;SDS011;21895;47.072;15.132;2023-09-12T01:20:02;9.02;;;4.60;;
20928;SDS011;21895;47.072;15.132;2023-09-12T01:22:43;9.43;;;4.55;;
20928;SDS011;21895;47.072;15.132;2023-09-12T01:26:17;7.28;;;4.07;;
20928;SDS011;21895;47.072;15.132;2023-09-12T01:29:06;6.45;;;3.53;;
20928;SDS011;21895;47.072;15.132;2023-09-12T01:31:38;7.53;;;4.28;;
20928;SDS011;21895;47.072;15.132;2023-09-12T01:34:09;8.23;;;4.55;;
20928;SDS011;21895;47.072;15.132;2023-09-12T01:36:36;9.68;;;4.62;;
20928;SDS011;21895;47.072;15.132;2023-09-12T01:39:03;10.60;;;5.03;;
20928;SDS011;21895;47.072;15.132;2023-09-12T01:41:31;9.50;;;4.53;;
20928;SDS011;21895;47.072;15.132;2023-09-12T01:44:05;9.00;;;5.00;;
20928;SDS011;21895;47.072;15.132;2023-09-12T01:46:34;9.60;;;5.32;;
20928;SDS011;21895;47.072;15.132;2023-09-12T01:49:04;9.68;;;5.50;;
20928;SDS011;21895;47.072;15.132;2023-09-12T01:51:33;9.43;;;5.32;;
20928;SDS011;21895;47.072;15.132;2023-09-12T01:54:01;8.43;;;4.47;;
20928;SDS011;21895;47.072;15.132;2023-09-12T01:56:30;7.35;;;4.20;;
20928;SDS011;21895;47.072;15.132;2023-09-12T01:58:57;7.15;;;4.28;;
20928;SDS011;21895;47.072;15.132;2023-09-12T02:01:24;8.77;;;4.00;;
20928;SDS011;21895;47.072;15.132;2023-09-12T02:03:52;8.77;;;4.32;;
20928;SDS011;21895;47.072;15.132;2023-09-12T02:06:19;8.65;;;4.30;;
20928;SDS011;21895;47.072;15.132;2023-09-12T02:08:46;7.62;;;4.40;;
20928;SDS011;21895;47.072;15.132;2023-09-12T02:11:12;8.82;;;4.53;;
20928;SDS011;21895;47.072;15.132;2023-09-12T02:13:39;6.78;;;4.45;;
20928;SDS011;21895;47.072;15.132;2023-09-12T02:16:05;8.27;;;5.00;;
20928;SDS011;21895;47.072;15.132;2023-09-12T02:18:32;10.48;;;5.50;;
20928;SDS011;21895;47.072;15.132;2023-09-12T02:20:59;8.68;;;4.70;;
20928;SDS011;21895;47.072;15.132;2023-09-12T02:23:25;14.10;;;5.12;;
20928;SDS011;21895;47.072;15.132;2023-09-12T02:25:52;9.65;;;4.60;;
20928;SDS011;21895;47.072;15.132;2023-09-12T02:28:18;8.55;;;4.93;;
20928;SDS011;21895;47.072;15.132;2023-09-12T02:30:45;9.95;;;5.93;;
20928;SDS011;21895;47.072;15.132;2023-09-12T02:33:11;10.80;;;4.93;;
20928;SDS011;21895;47.072;15.132;2023-09-12T02:35:38;9.67;;;4.97;;
20928;SDS011;21895;47.072;15.132;2023-09-12T02:38:05;7.32;;;4.87;;
20928;SDS011;21895;47.072;15.132;2023-09-12T02:40:31;9.30;;;4.85;;
20928;SDS011;21895;47.072;15.132;2023-09-12T02:42:58;10.50;;;5.37;;
20928;SDS011;21895;47.072;15.132;2023-09-12T02:45:24;9.57;;;5.18;;
20928;SDS011;21895;47.072;15.132;2023-09-12T02:47:51;9.32;;;4.93;;
20928;SDS011;21895;47.072;15.132;2023-09-12T02:50:18;8.68;;;4.28;;
20928;SDS011;21895;47.072;15.132;2023-09-12T02:52:44;7.12;;;4.20;;
20928;SDS011;21895;47.072;15.132;2023-09-12T02:55:11;8.93;;;4.62;;
20928;SDS011;21895;47.072;15.132;2023-09-12T02:57:40;6.50;;;4.18;;
20928;SDS011;21895;47.072;15.132;2023-09-12T03:00:10;6.50;;;4.60;;
20928;SDS011;21895;47.072;15.132;2023-09-12T03:02:37;9.52;;;4.60;;
20928;SDS011;21895;47.072;15.132;2023-09-12T03:05:04;10.88;;;4.78;;
20928;SDS011;21895;47.072;15.132;2023-09-12T03:07:32;8.10;;;4.28;;
20928;SDS011;21895;47.072;15.132;2023-09-12T03:09:59;12.57;;;5.70;;
20928;SDS011;21895;47.072;15.132;2023-09-12T03:12:26;8.13;;;4.72;;
20928;SDS011;21895;47.072;15.132;2023-09-12T03:14:52;8.25;;;5.05;;
20928;SDS011;21895;47.072;15.132;2023-09-12T03:17:19;8.07;;;4.68;;
20928;SDS011;21895;47.072;15.132;2023-09-12T03:19:46;9.75;;;5.15;;
20928;SDS011;21895;47.072;15.132;2023-09-12T03:22:13;8.90;;;5.07;;
20928;SDS011;21895;47.072;15.132;2023-09-12T03:24:39;11.32;;;5.30;;
20928;SDS011;21895;47.072;15.132;2023-09-12T03:27:06;9.73;;;5.20;;
20928;SDS011;21895;47.072;15.132;2023-09-12T03:29:33;11.90;;;4.97;;
20928;SDS011;21895;47.072;15.132;2023-09-12T03:32:00;8.80;;;5.12;;
20928;SDS011;21895;47.072;15.132;2023-09-12T03:34:26;8.65;;;4.95;;
20928;SDS011;21895;47.072;15.132;2023-09-12T03:36:53;12.45;;;5.62;;
20928;SDS011;21895;47.072;15.132;2023-09-12T03:39:19;9.00;;;4.78;;
20928;SDS011;21895;47.072;15.132;2023-09-12T03:41:46;8.30;;;4.53;;
20928;SDS011;21895;47.072;15.132;2023-09-12T03:44:13;8.27;;;4.82;;
20928;SDS011;21895;47.072;15.132;2023-09-12T03:46:39;11.23;;;5.30;;
20928;SDS011;21895;47.072;15.132;2023-09-12T03:49:06;9.32;;;5.37;;
20928;SDS011;21895;47.072;15.132;2023-09-12T03:51:33;8.82;;;4.72;;
20928;SDS011;21895;47.072;15.132;2023-09-12T03:54:00;10.45;;;5.10;;
20928;SDS011;21895;47.072;15.132;2023-09-12T03:56:28;8.30;;;4.50;;
20928;SDS011;21895;47.072;15.132;2023-09-12T03:58:54;9.98;;;4.85;;
20928;SDS011;21895;47.072;15.132;2023-09-12T04:01:23;10.77;;;5.28;;
20928;SDS011;21895;47.072;15.132;2023-09-12T04:03:49;8.02;;;4.53;;
20928;SDS011;21895;47.072;15.132;2023-09-12T04:06:16;8.88;;;4.65;;
20928;SDS011;21895;47.072;15.132;2023-09-12T04:08:43;10.63;;;5.40;;
20928;SDS011;21895;47.072;15.132;2023-09-12T04:11:10;7.57;;;4.55;;
20928;SDS011;21895;47.072;15.132;2023-09-12T04:13:37;10.27;;;4.70;;
20928;SDS011;21895;47.072;15.132;2023-09-12T04:16:03;8.38;;;4.65;;
20928;SDS011;21895;47.072;15.132;2023-09-12T04:18:30;8.82;;;5.10;;
20928;SDS011;21895;47.072;15.132;2023-09-12T04:20:57;9.45;;;4.50;;
20928;SDS011;21895;47.072;15.132;2023-09-12T04:23:26;7.50;;;4.85;;
20928;SDS011;21895;47.072;15.132;2023-09-12T04:25:52;11.02;;;4.87;;
20928;SDS011;21895;47.072;15.132;2023-09-12T04:28:19;10.55;;;5.28;;
20928;SDS011;21895;47.072;15.132;2023-09-12T04:30:46;10.68;;;5.97;;
20928;SDS011;21895;47.072;15.132;2023-09-12T04:33:12;11.30;;;4.63;;
20928;SDS011;21895;47.072;15.132;2023-09-12T04:35:39;11.35;;;5.28;;
20928;SDS011;21895;47.072;15.132;2023-09-12T04:38:06;9.38;;;4.28;;
20928;SDS011;21895;47.072;15.132;2023-09-12T04:40:32;10.45;;;4.62;;
20928;SDS011;21895;47.072;15.132;2023-09-12T04:42:59;9.75;;;4.75;;
20928;SDS011;21895;47.072;15.132;2023-09-12T04:45:25;7.72;;;4.30;;
20928;SDS011;21895;47.072;15.132;2023-09-12T04:47:52;9.52;;;4.45;;
20928;SDS011;21895;47.072;15.132;2023-09-12T04:50:19;9.55;;;4.82;;
20928;SDS011;21895;47.072;15.132;2023-09-12T04:52:45;7.30;;;4.65;;
20928;SDS011;21895;47.072;15.132;2023-09-12T04:55:12;9.30;;;4.90;;
20928;SDS011;21895;47.072;15.132;2023-09-12T04:57:38;8.02;;;4.68;;
20928;SDS011;21895;47.072;15.132;2023-09-12T05:00:08;9.27;;;4.62;;
20928;SDS011;21895;47.072;15.132;2023-09-12T05:02:36;9.13;;;4.78;;
20928;SDS011;21895;47.072;15.132;2023-09-12T05:05:03;10.48;;;5.18;;
20928;SDS011;21895;47.072;15.132;2023-09-12T05:07:30;9.52;;;5.35;;
20928;SDS011;21895;47.072;15.132;2023-09-12T05:09:56;8.57;;;4.87;;
20928;SDS011;21895;47.072;15.132;2023-09-12T05:12:23;8.43;;;4.60;;
20928;SDS011;21895;47.072;15.132;2023-09-12T05:14:50;8.93;;;4.75;;
20928;SDS011;21895;47.072;15.132;2023-09-12T05:17:16;8.95;;;4.80;;
20928;SDS011;21895;47.072;15.132;2023-09-12T05:19:43;8.65;;;5.15;;
20928;SDS011;21895;47.072;15.132;2023-09-12T05:22:09;8.80;;;4.65;;
20928;SDS011;21895;47.072;15.132;2023-09-12T05:24:36;9.98;;;5.28;;
20928;SDS011;21895;47.072;15.132;2023-09-12T05:27:03;7.85;;;4.70;;
20928;SDS011;21895;47.072;15.132;2023-09-12T05:29:31;12.45;;;5.12;;
20928;SDS011;21895;47.072;15.132;2023-09-12T05:32:00;10.25;;;5.20;;
20928;SDS011;21895;47.072;15.132;2023-09-12T05:34:27;10.63;;;5.20;;
20928;SDS011;21895;47.072;15.132;2023-09-12T05:36:54;10.25;;;5.00;;
20928;SDS011;21895;47.072;15.132;2023-09-12T05:39:22;9.10;;;4.53;;
20928;SDS011;21895;47.072;15.132;2023-09-12T05:41:49;8.13;;;4.62;;
20928;SDS011;21895;47.072;15.132;2023-09-12T05:44:15;10.05;;;4.93;;
20928;SDS011;21895;47.072;15.132;2023-09-12T05:46:47;9.85;;;5.10;;
20928;SDS011;21895;47.072;15.132;2023-09-12T05:49:14;13.45;;;5.00;;
20928;SDS011;21895;47.072;15.132;2023-09-12T05:51:41;10.80;;;4.82;;
20928;SDS011;21895;47.072;15.132;2023-09-12T05:54:08;11.40;;;6.03;;
20928;SDS011;21895;47.072;15.132;2023-09-12T05:56:36;13.62;;;5.85;;
20928;SDS011;21895;47.072;15.132;2023-09-12T05:59:05;14.90;;;6.95;;
20928;SDS011;21895;47.072;15.132;2023-09-12T06:01:32;11.05;;;6.40;;
20928;SDS011;21895;47.072;15.132;2023-09-12T06:03:59;13.75;;;6.55;;
20928;SDS011;21895;47.072;15.132;2023-09-12T06:06:26;13.75;;;6.60;;
20928;SDS011;21895;47.072;15.132;2023-09-12T06:08:53;11.63;;;6.20;;
20928;SDS011;21895;47.072;15.132;2023-09-12T06:11:20;11.95;;;6.72;;
20928;SDS011;21895;47.072;15.132;2023-09-12T06:13:47;12.50;;;6.25;;
20928;SDS011;21895;47.072;15.132;2023-09-12T06:16:14;13.32;;;6.93;;
20928;SDS011;21895;47.072;15.132;2023-09-12T06:18:41;12.43;;;6.35;;
20928;SDS011;21895;47.072;15.132;2023-09-12T06:21:08;14.50;;;6.53;;
20928;SDS011;21895;47.072;15.132;2023-09-12T06:23:34;15.00;;;7.05;;
20928;SDS011;21895;47.072;15.132;2023-09-12T06:26:01;11.60;;;6.30;;
20928;SDS011;21895;47.072;15.132;2023-09-12T06:28:29;12.75;;;6.50;;
20928;SDS011;21895;47.072;15.132;2023-09-12T06:30:57;14.85;;;6.82;;
20928;SDS011;21895;47.072;15.132;2023-09-12T06:33:25;12.15;;;6.50;;
20928;SDS011;21895;47.072;15.132;2023-09-12T06:35:52;14.60;;;6.37;;
20928;SDS011;21895;47.072;15.132;2023-09-12T06:38:19;15.73;;;6.60;;
20928;SDS011;21895;47.072;15.132;2023-09-12T06:40:47;19.75;;;7.28;;
20928;SDS011;21895;47.072;15.132;2023-09-12T06:43:14;13.70;;;6.90;;
20928;SDS011;21895;47.072;15.132;2023-09-12T06:45:40;12.57;;;6.60;;
20928;SDS011;21895;47.072;15.132;2023-09-12T06:48:07;13.10;;;7.10;;
20928;SDS011;21895;47.072;15.132;2023-09-12T06:50:34;10.40;;;6.18;;
20928;SDS011;21895;47.072;15.132;2023-09-12T06:53:03;15.07;;;6.80;;
20928;SDS011;21895;47.072;15.132;2023-09-12T06:55:32;14.13;;;6.20;;
20928;SDS011;21895;47.072;15.132;2023-09-12T06:57:59;14.38;;;6.80;;
20928;SDS011;21895;47.072;15.132;2023-09-12T07:00:26;11.77;;;6.90;;
20928;SDS011;21895;47.072;15.132;2023-09-12T07:02:52;12.30;;;6.62;;
20928;SDS011;21895;47.072;15.132;2023-09-12T07:05:19;12.32;;;6.55;;
20928;SDS011;21895;47.072;15.132;2023-09-12T07:07:46;11.40;;;6.22;;
20928;SDS011;21895;47.072;15.132;2023-09-12T07:10:13;14.48;;;5.95;;
20928;SDS011;21895;47.072;15.132;2023-09-12T07:12:50;13.40;;;7.12;;
20928;SDS011;21895;47.072;15.132;2023-09-12T07:15:19;15.25;;;6.55;;
20928;SDS011;21895;47.072;15.132;2023-09-12T07:17:46;11.12;;;6.03;;
20928;SDS011;21895;47.072;15.132;2023-09-12T07:20:13;14.50;;;6.60;;
20928;SDS011;21895;47.072;15.132;2023-09-12T07:22:41;11.68;;;6.22;;
20928;SDS011;21895;47.072;15.132;2023-09-12T07:25:08;12.45;;;6.57;;
20928;SDS011;21895;47.072;15.132;2023-09-12T07:27:37;9.93;;;6.47;;
20928;SDS011;21895;47.072;15.132;2023-09-12T07:30:04;11.90;;;6.53;;
20928;SDS011;21895;47.072;15.132;2023-09-12T07:32:32;12.73;;;7.05;;
20928;SDS011;21895;47.072;15.132;2023-09-12T07:34:59;10.50;;;6.25;;
20928;SDS011;21895;47.072;15.132;2023-09-12T07:37:25;13.60;;;6.85;;
20928;SDS011;21895;47.072;15.132;2023-09-12T07:39:52;10.98;;;6.25;;
20928;SDS011;21895;47.072;15.132;2023-09-12T07:42:22;13.98;;;6.90;;
20928;SDS011;21895;47.072;15.132;2023-09-12T07:44:49;19.73;;;7.82;;
20928;SDS011;21895;47.072;15.132;2023-09-12T07:47:16;11.95;;;6.47;;
20928;SDS011;21895;47.072;15.132;2023-09-12T07:49:43;14.23;;;6.57;;
20928;SDS011;21895;47.072;15.132;2023-09-12T07:52:10;11.52;;;6.07;;
20928;SDS011;21895;47.072;15.132;2023-09-12T07:54:37;15.23;;;7.00;;
20928;SDS011;21895;47.072;15.132;2023-09-12T07:57:03;13.32;;;6.68;;
20928;SDS011;21895;47.072;15.132;2023-09-12T07:59:30;11.32;;;5.75;;
20928;SDS011;21895;47.072;15.132;2023-09-12T08:01:57;12.98;;;6.75;;
20928;SDS011;21895;47.072;15.132;2023-09-12T08:04:23;11.43;;;6.57;;
20928;SDS011;21895;47.072;15.132;2023-09-12T08:06:50;13.23;;;6.32;;
20928;SDS011;21895;47.072;15.132;2023-09-12T08:09:46;14.43;;;7.70;;
20928;SDS011;21895;47.072;15.132;2023-09-12T08:12:19;11.23;;;6.53;;
20928;SDS011;21895;47.072;15.132;2023-09-12T08:14:48;13.43;;;6.45;;
20928;SDS011;21895;47.072;15.132;2023-09-12T08:17:14;13.55;;;6.72;;
20928;SDS011;21895;47.072;15.132;2023-09-12T08:19:41;12.20;;;6.20;;
20928;SDS011;21895;47.072;15.132;2023-09-12T08:22:08;15.93;;;6.12;;
20928;SDS011;21895;47.072;15.132;2023-09-12T08:24:37;16.40;;;6.47;;
20928;SDS011;21895;47.072;15.132;2023-09-12T08:27:05;13.02;;;6.93;;
20928;SDS011;21895;47.072;15.132;2023-09-12T08:29:33;12.98;;;6.80;;
20928;SDS011;21895;47.072;15.132;2023-09-12T08:32:00;16.50;;;6.82;;
20928;SDS011;21895;47.072;15.132;2023-09-12T08:34:27;14.63;;;6.53;;
20928;SDS011;21895;47.072;15.132;2023-09-12T08:36:54;13.93;;;6.65;;
20928;SDS011;21895;47.072;15.132;2023-09-12T08:39:24;15.15;;;7.03;;
20928;SDS011;21895;47.072;15.132;2023-09-12T08:41:53;12.05;;;6.95;;
20928;SDS011;21895;47.072;15.132;2023-09-12T08:44:21;11.95;;;7.12;;
20928;SDS011;21895;47.072;15.132;2023-09-12T08:46:47;12.82;;;7.03;;
20928;SDS011;21895;47.072;15.132;2023-09-12T08:49:14;14.80;;;7.32;;
20928;SDS011;21895;47.072;15.132;2023-09-12T08:51:42;13.77;;;6.68;;
20928;SDS011;21895;47.072;15.132;2023-09-12T08:54:08;14.30;;;6.85;;
20928;SDS011;21895;47.072;15.132;2023-09-12T08:56:36;13.07;;;6.95;;
20928;SDS011;21895;47.072;15.132;2023-09-12T08:59:06;16.83;;;8.18;;
20928;SDS011;21895;47.072;15.132;2023-09-12T09:01:35;11.40;;;7.20;;
20928;SDS011;21895;47.072;15.132;2023-09-12T09:04:04;16.35;;;6.47;;
20928;SDS011;21895;47.072;15.132;2023-09-12T09:06:31;14.32;;;6.72;;
20928;SDS011;21895;47.072;15.132;2023-09-12T09:09:04;11.80;;;6.68;;
20928;SDS011;21895;47.072;15.132;2023-09-12T09:11:33;11.55;;;7.10;;
20928;SDS011;21895;47.072;15.132;2023-09-12T09:14:03;16.75;;;7.43;;
20928;SDS011;21895;47.072;15.132;2023-09-12T09:16:30;11.75;;;6.68;;
20928;SDS011;21895;47.072;15.132;2023-09-12T09:19:04;13.18;;;6.65;;
20928;SDS011;21895;47.072;15.132;2023-09-12T09:21:35;12.15;;;7.03;;
20928;SDS011;21895;47.072;15.132;2023-09-12T09:24:09;11.32;;;6.82;;
20928;SDS011;21895;47.072;15.132;2023-09-12T09:29:26;11.20;;;6.93;;
20928;SDS011;21895;47.072;15.132;2023-09-12T09:31:58;13.75;;;6.53;;
20928;SDS011;21895;47.072;15.132;2023-09-12T09:34:27;11.57;;;7.05;;
20928;SDS011;21895;47.072;15.132;2023-09-12T09:36:55;11.25;;;6.72;;
20928;SDS011;21895;47.072;15.132;2023-09-12T09:39:26;12.77;;;7.28;;
20928;SDS011;21895;47.072;15.132;2023-09-12T09:41:57;12.73;;;6.97;;
20928;SDS011;21895;47.072;15.132;2023-09-12T09:44:24;14.32;;;7.40;;
20928;SDS011;21895;47.072;15.132;2023-09-12T09:46:54;12.45;;;7.10;;
20928;SDS011;21895;47.072;15.132;2023-09-12T09:49:31;12.88;;;6.82;;
20928;SDS011;21895;47.072;15.132;2023-09-12T09:52:04;10.68;;;6.75;;
20928;SDS011;21895;47.072;15.132;2023-09-12T09:54:31;11.93;;;6.85;;
20928;SDS011;21895;47.072;15.132;2023-09-12T09:56:58;14.18;;;7.25;;
20928;SDS011;21895;47.072;15.132;2023-09-12T09:59:26;11.88;;;7.12;;
20928;SDS011;21895;47.072;15.132;2023-09-12T10:01:55;10.07;;;6.50;;
20928;SDS011;21895;47.072;15.132;2023-09-12T10:04:24;11.85;;;6.90;;
20928;SDS011;21895;47.072;15.132;2023-09-12T10:06:55;11.75;;;6.60;;
20928;SDS011;21895;47.072;15.132;2023-09-12T10:09:27;16.67;;;6.68;;
20928;SDS011;21895;47.072;15.132;2023-09-12T10:11:56;13.75;;;6.75;;
20928;SDS011;21895;47.072;15.132;2023-09-12T10:14:24;13.10;;;7.25;;
20928;SDS011;21895;47.072;15.132;2023-09-12T10:16:56;15.13;;;7.53;;
20928;SDS011;21895;47.072;15.132;2023-09-12T10:19:35;15.63;;;6.72;;
20928;SDS011;21895;47.072;15.132;2023-09-12T10:22:17;17.98;;;7.80;;
20928;SDS011;21895;47.072;15.132;2023-09-12T10:24:50;10.80;;;6.75;;
20928;SDS011;21895;47.072;15.132;2023-09-12T10:27:19;10.57;;;6.62;;
20928;SDS011;21895;47.072;15.132;2023-09-12T10:29:48;12.30;;;7.28;;
20928;SDS011;21895;47.072;15.132;2023-09-12T10:32:18;14.00;;;6.85;;
20928;SDS011;21895;47.072;15.132;2023-09-12T10:34:46;13.38;;;6.82;;
20928;SDS011;21895;47.072;15.132;2023-09-12T10:37:15;12.27;;;6.93;;
20928;SDS011;21895;47.072;15.132;2023-09-12T10:39:43;11.52;;;6.20;;
20928;SDS011;21895;47.072;15.132;2023-09-12T10:42:11;12.85;;;7.40;;
20928;SDS011;21895;47.072;15.132;2023-09-12T10:44:39;16.73;;;7.35;;
20928;SDS011;21895;47.072;15.132;2023-09-12T10:47:05;11.38;;;6.95;;
20928;SDS011;21895;47.072;15.132;2023-09-12T10:49:34;16.50;;;7.45;;
20928;SDS011;21895;47.072;15.132;2023-09-12T10:52:02;12.88;;;7.22;;
20928;SDS011;21895;47.072;15.132;2023-09-12T10:54:36;12.27;;;7.15;;
20928;SDS011;21895;47.072;15.132;2023-09-12T10:57:09;19.58;;;7.40;;
20928;SDS011;21895;47.072;15.132;2023-09-12T11:05:04;14.30;;;6.93;;
20928;SDS011;21895;47.072;15.132;2023-09-12T11:08:07;15.32;;;7.55;;
20928;SDS011;21895;47.072;15.132;2023-09-12T11:10:34;10.43;;;7.45;;
20928;SDS011;21895;47.072;15.132;2023-09-12T11:13:00;13.18;;;7.50;;
20928;SDS011;21895;47.072;15.132;2023-09-12T11:15:27;14.57;;;7.55;;
20928;SDS011;21895;47.072;15.132;2023-09-12T11:18:04;13.10;;;7.70;;
20928;SDS011;21895;47.072;15.132;2023-09-12T11:25:36;12.05;;;7.43;;
20928;SDS011;21895;47.072;15.132;2023-09-12T11:28:03;11.93;;;6.80;;
20928;SDS011;21895;47.072;15.132;2023-09-12T11:30:31;11.52;;;7.37;;
20928;SDS011;21895;47.072;15.132;2023-09-12T11:32:58;10.88;;;6.47;;
20928;SDS011;21895;47.072;15.132;2023-09-12T11:35:28;13.95;;;7.12;;
20928;SDS011;21895;47.072;15.132;2023-09-12T11:37:55;13.25;;;7.10;;
20928;SDS011;21895;47.072;15.132;2023-09-12T11:44:07;10.48;;;6.43;;
20928;SDS011;21895;47.072;15.132;2023-09-12T11:46:34;12.05;;;6.87;;
20928;SDS011;21895;47.072;15.132;2023-09-12T11:49:02;11.40;;;7.40;;
20928;SDS011;21895;47.072;15.132;2023-09-12T11:51:29;13.50;;;7.30;;
20928;SDS011;21895;47.072;15.132;2023-09-12T11:53:56;11.73;;;6.85;;
20928;SDS011;21895;47.072;15.132;2023-09-12T11:56:25;10.95;;;7.00;;
20928;SDS011;21895;47.072;15.132;2023-09-12T11:58:53;11.88;;;6.62;;
20928;SDS011;21895;47.072;15.132;2023-09-12T12:01:20;13.75;;;6.82;;
20928;SDS011;21895;47.072;15.132;2023-09-12T12:03:47;13.82;;;6.57;;
20928;SDS011;21895;47.072;15.132;2023-09-12T12:06:18;11.57;;;7.20;;
20928;SDS011;21895;47.072;15.132;2023-09-12T12:08:45;16.52;;;6.68;;
20928;SDS011;21895;47.072;15.132;2023-09-12T12:11:11;10.65;;;6.20;;
20928;SDS011;21895;47.072;15.132;2023-09-12T12:13:38;16.52;;;7.40;;
20928;SDS011;21895;47.072;15.132;2023-09-12T12:16:14;11.23;;;6.60;;
20928;SDS011;21895;47.072;15.132;2023-09-12T12:18:42;12.90;;;6.75;;
20928;SDS011;21895;47.072;15.132;2023-09-12T12:21:09;9.85;;;6.07;;
20928;SDS011;21895;47.072;15.132;2023-09-12T12:23:36;11.77;;;6.68;;
20928;SDS011;21895;47.072;15.132;2023-09-12T12:26:11;11.43;;;6.80;;
20928;SDS011;21895;47.072;15.132;2023-09-12T12:28:38;9.38;;;6.43;;
20928;SDS011;21895;47.072;15.132;2023-09-12T12:31:06;11.15;;;7.50;;
20928;SDS011;21895;47.072;15.132;2023-09-12T12:33:33;13.70;;;6.85;;
20928;SDS011;21895;47.072;15.132;2023-09-12T12:38:07;11.15;;;6.50;;
20928;SDS011;21895;47.072;15.132;2023-09-12T12:40:38;9.50;;;6.55;;
20928;SDS011;21895;47.072;15.132;2023-09-12T12:43:17;9.93;;;6.55;;
20928;SDS011;21895;47.072;15.132;2023-09-12T12:45:55;14.77;;;6.43;;
20928;SDS011;21895;47.072;15.132;2023-09-12T12:48:33;11.77;;;6.80;;
20928;SDS011;21895;47.072;15.132;2023-09-12T12:51:17;14.45;;;6.12;;
20928;SDS011;21895;47.072;15.132;2023-09-12T12:53:51;10.07;;;6.37;;
20928;SDS011;21895;47.072;15.132;2023-09-12T12:56:22;15.98;;;7.30;;
20928;SDS011;21895;47.072;15.132;2023-09-12T12:58:57;11.65;;;6.85;;
20928;SDS011;21895;47.072;15.132;2023-09-12T13:01:28;11.77;;;6.37;;
20928;SDS011;21895;47.072;15.132;2023-09-12T13:03:55;13.15;;;7.28;;
20928;SDS011;21895;47.072;15.132;2023-09-12T13:06:22;10.55;;;7.05;;
20928;SDS011;21895;47.072;15.132;2023-09-12T13:08:49;12.02;;;7.47;;
20928;SDS011;21895;47.072;15.132;2023-09-12T13:11:17;14.93;;;7.22;;
20928;SDS011;21895;47.072;15.132;2023-09-12T13:13:44;9.73;;;6.37;;
20928;SDS011;21895;47.072;15.132;2023-09-12T13:16:14;9.43;;;6.93;;
20928;SDS011;21895;47.072;15.132;2023-09-12T13:18:42;13.65;;;7.22;;
20928;SDS011;21895;47.072;15.132;2023-09-12T13:21:09;11.12;;;6.80;;
20928;SDS011;21895;47.072;15.132;2023-09-12T13:23:36;11.75;;;6.90;;
20928;SDS011;21895;47.072;15.132;2023-09-12T13:26:05;15.90;;;7.80;;
20928;SDS011;21895;47.072;15.132;2023-09-12T13:28:34;10.95;;;7.15;;
20928;SDS011;21895;47.072;15.132;2023-09-12T13:31:00;11.02;;;7.37;;
20928;SDS011;21895;47.072;15.132;2023-09-12T13:33:27;11.38;;;7.25;;
20928;SDS011;21895;47.072;15.132;2023-09-12T13:35:54;11.63;;;7.18;;
20928;SDS011;21895;47.072;15.132;2023-09-12T13:38:21;15.57;;;8.25;;
20928;SDS011;21895;47.072;15.132;2023-09-12T13:40:48;12.13;;;7.65;;
20928;SDS011;21895;47.072;15.132;2023-09-12T13:43:15;12.50;;;7.00;;
20928;SDS011;21895;47.072;15.132;2023-09-12T13:45:41;11.75;;;7.62;;
20928;SDS011;21895;47.072;15.132;2023-09-12T13:48:08;13.18;;;7.65;;
20928;SDS011;21895;47.072;15.132;2023-09-12T13:50:35;10.27;;;7.10;;
20928;SDS011;21895;47.072;15.132;2023-09-12T13:53:02;15.63;;;8.52;;
20928;SDS011;21895;47.072;15.132;2023-09-12T13:55:35;16.80;;;7.62;;
20928;SDS011;21895;47.072;15.132;2023-09-12T13:58:03;15.27;;;8.50;;
20928;SDS011;21895;47.072;15.132;2023-09-12T14:00:31;12.63;;;7.53;;
20928;SDS011;21895;47.072;15.132;2023-09-12T14:03:03;12.30;;;7.47;;
20928;SDS011;21895;47.072;15.132;2023-09-12T14:05:31;25.00;;;7.22;;
20928;SDS011;21895;47.072;15.132;2023-09-12T14:07:58;11.10;;;7.15;;
20928;SDS011;21895;47.072;15.132;2023-09-12T14:10:25;12.88;;;7.18;;
20928;SDS011;21895;47.072;15.132;2023-09-12T14:13:02;13.70;;;7.82;;
20928;SDS011;21895;47.072;15.132;2023-09-12T14:15:47;11.63;;;7.15;;
20928;SDS011;21895;47.072;15.132;2023-09-12T14:18:16;17.10;;;7.68;;
20928;SDS011;21895;47.072;15.132;2023-09-12T14:20:44;15.32;;;7.65;;
20928;SDS011;21895;47.072;15.132;2023-09-12T14:23:13;10.88;;;7.45;;
20928;SDS011;21895;47.072;15.132;2023-09-12T14:25:42;12.20;;;7.40;;
20928;SDS011;21895;47.072;15.132;2023-09-12T14:28:09;11.70;;;7.03;;
20928;SDS011;21895;47.072;15.132;2023-09-12T14:30:37;14.63;;;7.00;;
20928;SDS011;21895;47.072;15.132;2023-09-12T14:33:09;8.27;;;6.00;;
20928;SDS011;21895;47.072;15.132;2023-09-12T14:35:39;13.13;;;7.43;;
20928;SDS011;21895;47.072;15.132;2023-09-12T14:38:10;11.55;;;7.60;;
20928;SDS011;21895;47.072;15.132;2023-09-12T14:40:36;13.50;;;7.87;;
20928;SDS011;21895;47.072;15.132;2023-09-12T14:43:03;11.50;;;7.85;;
20928;SDS011;21895;47.072;15.132;2023-09-12T14:45:30;13.55;;;8.07;;
20928;SDS011;21895;47.072;15.132;2023-09-12T14:47:57;14.02;;;8.32;;
20928;SDS011;21895;47.072;15.132;2023-09-12T14:50:24;11.75;;;7.65;;
20928;SDS011;21895;47.072;15.132;2023-09-12T14:53:04;12.77;;;8.40;;